sensor_id;sensor_type;location;lat;lon;timestamp;P1;durP1;ratioP1;P2;durP2;ratioP2
23404;SDS011;11875;49.356;2.718;2023-06-19T00:01:45;9.50;;;2.70;;
23404;SDS011;11875;49.356;2.718;2023-06-19T00:04:10;8.35;;;2.65;;
23404;SDS011;11875;49.356;2.718;2023-06-19T00:06:36;9.45;;;2.70;;
23404;SDS011;11875;49.356;2.718;2023-06-19T00:09:02;3.70;;;2.55;;
23404;SDS011;11875;49.356;2.718;2023-06-19T00:11:28;5.35;;;2.92;;
23404;SDS011;11875;49.356;2.718;2023-06-19T00:13:54;9.48;;;3.50;;
23404;SDS011;11875;49.356;2.718;2023-06-19T00:16:20;6.45;;;2.90;;
23404;SDS011;11875;49.356;2.718;2023-06-19T00:18:46;6.10;;;2.92;;
23404;SDS011;11875;49.356;2.718;2023-06-19T00:21:11;8.63;;;3.00;;
23404;SDS011;11875;49.356;2.718;2023-06-19T00:23:37;4.43;;;3.00;;
23404;SDS011;11875;49.356;2.718;2023-06-19T00:26:03;6.15;;;3.17;;
23404;SDS011;11875;49.356;2.718;2023-06-19T00:28:29;7.28;;;2.95;;
23404;SDS011;11875;49.356;2.718;2023-06-19T00:30:55;4.82;;;3.10;;
23404;SDS011;11875;49.356;2.718;2023-06-19T00:33:21;5.10;;;2.80;;
23404;SDS011;11875;49.356;2.718;2023-06-19T00:35:47;6.28;;;3.00;;
23404;SDS011;11875;49.356;2.718;2023-06-19T00:38:16;7.13;;;2.58;;
23404;SDS011;11875;49.356;2.718;2023-06-19T00:40:41;4.63;;;2.72;;
23404;SDS011;11875;49.356;2.718;2023-06-19T00:43:07;5.03;;;3.00;;
23404;SDS011;11875;49.356;2.718;2023-06-19T00:45:32;9.32;;;3.17;;
23404;SDS011;11875;49.356;2.718;2023-06-19T00:47:59;7.72;;;3.45;;
23404;SDS011;11875;49.356;2.718;2023-06-19T00:50:26;8.27;;;3.10;;
23404;SDS011;11875;49.356;2.718;2023-06-19T00:52:54;4.60;;;2.78;;
23404;SDS011;11875;49.356;2.718;2023-06-19T00:55:20;9.48;;;3.10;;
23404;SDS011;11875;49.356;2.718;2023-06-19T00:57:46;7.70;;;3.00;;
23404;SDS011;11875;49.356;2.718;2023-06-19T01:00:14;6.13;;;3.40;;
23404;SDS011;11875;49.356;2.718;2023-06-19T01:02:40;9.65;;;3.50;;
23404;SDS011;11875;49.356;2.718;2023-06-19T01:05:05;8.02;;;3.60;;
23404;SDS011;11875;49.356;2.718;2023-06-19T01:07:41;10.35;;;5.63;;
23404;SDS011;11875;49.356;2.718;2023-06-19T01:10:22;9.88;;;4.00;;
23404;SDS011;11875;49.356;2.718;2023-06-19T01:12:54;6.10;;;3.65;;
23404;SDS011;11875;49.356;2.718;2023-06-19T01:15:23;6.88;;;3.53;;
23404;SDS011;11875;49.356;2.718;2023-06-19T01:17:50;17.10;;;4.25;;
23404;SDS011;11875;49.356;2.718;2023-06-19T01:20:16;7.57;;;3.88;;
23404;SDS011;11875;49.356;2.718;2023-06-19T01:22:42;9.63;;;4.82;;
23404;SDS011;11875;49.356;2.718;2023-06-19T01:25:11;7.38;;;3.58;;
23404;SDS011;11875;49.356;2.718;2023-06-19T01:27:40;12.93;;;4.20;;
23404;SDS011;11875;49.356;2.718;2023-06-19T01:30:07;7.78;;;4.15;;
23404;SDS011;11875;49.356;2.718;2023-06-19T01:32:50;7.03;;;4.32;;
23404;SDS011;11875;49.356;2.718;2023-06-19T01:35:23;6.47;;;4.10;;
23404;SDS011;11875;49.356;2.718;2023-06-19T01:37:52;11.77;;;4.68;;
23404;SDS011;11875;49.356;2.718;2023-06-19T01:40:19;6.20;;;4.15;;
23404;SDS011;11875;49.356;2.718;2023-06-19T01:42:49;7.72;;;4.60;;
23404;SDS011;11875;49.356;2.718;2023-06-19T01:45:19;7.18;;;4.13;;
23404;SDS011;11875;49.356;2.718;2023-06-19T01:47:45;7.80;;;4.20;;
23404;SDS011;11875;49.356;2.718;2023-06-19T01:50:11;6.93;;;4.35;;
23404;SDS011;11875;49.356;2.718;2023-06-19T01:52:39;8.25;;;4.50;;
23404;SDS011;11875;49.356;2.718;2023-06-19T01:55:06;8.00;;;4.32;;
23404;SDS011;11875;49.356;2.718;2023-06-19T01:57:32;12.55;;;4.68;;
23404;SDS011;11875;49.356;2.718;2023-06-19T01:59:57;8.02;;;4.00;;
23404;SDS011;11875;49.356;2.718;2023-06-19T02:02:23;9.57;;;4.60;;
23404;SDS011;11875;49.356;2.718;2023-06-19T02:04:49;7.63;;;4.22;;
23404;SDS011;11875;49.356;2.718;2023-06-19T02:07:14;9.57;;;4.57;;
23404;SDS011;11875;49.356;2.718;2023-06-19T02:09:40;6.72;;;4.60;;
23404;SDS011;11875;49.356;2.718;2023-06-19T02:12:06;9.15;;;4.22;;
23404;SDS011;11875;49.356;2.718;2023-06-19T02:14:32;7.07;;;4.15;;
23404;SDS011;11875;49.356;2.718;2023-06-19T02:16:58;10.15;;;4.47;;
23404;SDS011;11875;49.356;2.718;2023-06-19T02:19:23;6.78;;;3.92;;
23404;SDS011;11875;49.356;2.718;2023-06-19T02:21:49;9.27;;;4.60;;
23404;SDS011;11875;49.356;2.718;2023-06-19T02:24:15;6.78;;;4.32;;
23404;SDS011;11875;49.356;2.718;2023-06-19T02:26:40;11.82;;;5.05;;
23404;SDS011;11875;49.356;2.718;2023-06-19T02:29:06;8.70;;;4.70;;
23404;SDS011;11875;49.356;2.718;2023-06-19T02:31:31;12.85;;;4.95;;
23404;SDS011;11875;49.356;2.718;2023-06-19T02:33:57;12.85;;;5.70;;
23404;SDS011;11875;49.356;2.718;2023-06-19T02:36:23;8.43;;;5.30;;
23404;SDS011;11875;49.356;2.718;2023-06-19T02:38:48;8.43;;;5.43;;
23404;SDS011;11875;49.356;2.718;2023-06-19T02:41:14;9.77;;;4.95;;
23404;SDS011;11875;49.356;2.718;2023-06-19T02:43:41;8.57;;;5.00;;
23404;SDS011;11875;49.356;2.718;2023-06-19T02:46:08;13.65;;;5.57;;
23404;SDS011;11875;49.356;2.718;2023-06-19T02:48:34;12.13;;;5.18;;
23404;SDS011;11875;49.356;2.718;2023-06-19T02:50:59;10.07;;;5.75;;
23404;SDS011;11875;49.356;2.718;2023-06-19T02:53:25;8.88;;;5.40;;
23404;SDS011;11875;49.356;2.718;2023-06-19T02:55:51;8.32;;;5.40;;
23404;SDS011;11875;49.356;2.718;2023-06-19T02:58:16;10.70;;;5.15;;
23404;SDS011;11875;49.356;2.718;2023-06-19T03:00:42;8.07;;;5.55;;
23404;SDS011;11875;49.356;2.718;2023-06-19T03:03:09;9.75;;;6.40;;
23404;SDS011;11875;49.356;2.718;2023-06-19T03:05:34;6.25;;;5.50;;
23404;SDS011;11875;49.356;2.718;2023-06-19T03:08:00;13.15;;;5.80;;
23404;SDS011;11875;49.356;2.718;2023-06-19T03:10:26;9.63;;;5.53;;
23404;SDS011;11875;49.356;2.718;2023-06-19T03:12:51;9.93;;;6.05;;
23404;SDS011;11875;49.356;2.718;2023-06-19T03:15:17;11.98;;;6.10;;
23404;SDS011;11875;49.356;2.718;2023-06-19T03:17:43;8.95;;;6.80;;
23404;SDS011;11875;49.356;2.718;2023-06-19T03:20:08;15.45;;;6.93;;
23404;SDS011;11875;49.356;2.718;2023-06-19T03:22:37;9.57;;;6.22;;
23404;SDS011;11875;49.356;2.718;2023-06-19T03:25:04;12.85;;;6.47;;
23404;SDS011;11875;49.356;2.718;2023-06-19T03:27:31;15.43;;;6.75;;
23404;SDS011;11875;49.356;2.718;2023-06-19T03:29:56;11.52;;;6.18;;
23404;SDS011;11875;49.356;2.718;2023-06-19T03:32:22;15.13;;;6.85;;
23404;SDS011;11875;49.356;2.718;2023-06-19T03:34:48;8.25;;;6.22;;
23404;SDS011;11875;49.356;2.718;2023-06-19T03:37:13;15.18;;;7.00;;
23404;SDS011;11875;49.356;2.718;2023-06-19T03:39:39;10.40;;;6.72;;
23404;SDS011;11875;49.356;2.718;2023-06-19T03:42:05;10.65;;;6.63;;
23404;SDS011;11875;49.356;2.718;2023-06-19T03:44:31;10.73;;;6.47;;
23404;SDS011;11875;49.356;2.718;2023-06-19T03:46:56;8.13;;;6.60;;
23404;SDS011;11875;49.356;2.718;2023-06-19T03:49:22;12.80;;;7.20;;
23404;SDS011;11875;49.356;2.718;2023-06-19T03:51:47;8.82;;;6.00;;
23404;SDS011;11875;49.356;2.718;2023-06-19T03:54:13;9.02;;;6.18;;
23404;SDS011;11875;49.356;2.718;2023-06-19T03:56:39;9.43;;;6.57;;
23404;SDS011;11875;49.356;2.718;2023-06-19T03:59:04;9.27;;;6.80;;
23404;SDS011;11875;49.356;2.718;2023-06-19T04:01:30;12.43;;;6.40;;
23404;SDS011;11875;49.356;2.718;2023-06-19T04:03:55;9.63;;;6.63;;
23404;SDS011;11875;49.356;2.718;2023-06-19T04:06:21;14.52;;;6.57;;
23404;SDS011;11875;49.356;2.718;2023-06-19T04:08:47;11.95;;;6.28;;
23404;SDS011;11875;49.356;2.718;2023-06-19T04:11:13;7.35;;;6.45;;
23404;SDS011;11875;49.356;2.718;2023-06-19T04:13:39;7.13;;;6.45;;
23404;SDS011;11875;49.356;2.718;2023-06-19T04:16:04;13.05;;;7.38;;
23404;SDS011;11875;49.356;2.718;2023-06-19T04:18:30;9.30;;;6.25;;
23404;SDS011;11875;49.356;2.718;2023-06-19T04:20:55;9.93;;;6.05;;
23404;SDS011;11875;49.356;2.718;2023-06-19T04:23:21;13.40;;;7.20;;
23404;SDS011;11875;49.356;2.718;2023-06-19T04:25:46;9.00;;;6.00;;
23404;SDS011;11875;49.356;2.718;2023-06-19T04:28:12;9.68;;;6.53;;
23404;SDS011;11875;49.356;2.718;2023-06-19T04:30:38;8.48;;;5.75;;
23404;SDS011;11875;49.356;2.718;2023-06-19T04:33:06;7.65;;;5.93;;
23404;SDS011;11875;49.356;2.718;2023-06-19T04:35:33;7.63;;;5.82;;
23404;SDS011;11875;49.356;2.718;2023-06-19T04:38:04;8.60;;;5.93;;
23404;SDS011;11875;49.356;2.718;2023-06-19T04:40:33;8.18;;;6.50;;
23404;SDS011;11875;49.356;2.718;2023-06-19T04:42:59;10.20;;;6.18;;
23404;SDS011;11875;49.356;2.718;2023-06-19T04:45:26;10.35;;;6.30;;
23404;SDS011;11875;49.356;2.718;2023-06-19T04:47:51;10.40;;;6.80;;
23404;SDS011;11875;49.356;2.718;2023-06-19T04:50:17;10.75;;;6.90;;
23404;SDS011;11875;49.356;2.718;2023-06-19T04:52:42;8.27;;;5.82;;
23404;SDS011;11875;49.356;2.718;2023-06-19T04:55:08;13.55;;;6.90;;
23404;SDS011;11875;49.356;2.718;2023-06-19T04:57:34;7.63;;;5.97;;
23404;SDS011;11875;49.356;2.718;2023-06-19T05:00:02;14.13;;;7.82;;
23404;SDS011;11875;49.356;2.718;2023-06-19T05:02:31;12.93;;;7.97;;
23404;SDS011;11875;49.356;2.718;2023-06-19T05:04:57;10.32;;;7.85;;
23404;SDS011;11875;49.356;2.718;2023-06-19T05:07:22;11.48;;;6.70;;
23404;SDS011;11875;49.356;2.718;2023-06-19T05:09:48;9.93;;;7.32;;
23404;SDS011;11875;49.356;2.718;2023-06-19T05:12:13;11.75;;;7.50;;
23404;SDS011;11875;49.356;2.718;2023-06-19T05:14:39;19.48;;;7.13;;
23404;SDS011;11875;49.356;2.718;2023-06-19T05:17:05;15.70;;;7.20;;
23404;SDS011;11875;49.356;2.718;2023-06-19T05:19:31;15.32;;;7.40;;
23404;SDS011;11875;49.356;2.718;2023-06-19T05:21:56;12.60;;;7.38;;
23404;SDS011;11875;49.356;2.718;2023-06-19T05:24:22;9.98;;;7.35;;
23404;SDS011;11875;49.356;2.718;2023-06-19T05:26:47;14.45;;;7.60;;
23404;SDS011;11875;49.356;2.718;2023-06-19T05:29:13;11.25;;;8.07;;
23404;SDS011;11875;49.356;2.718;2023-06-19T05:31:39;14.13;;;7.88;;
23404;SDS011;11875;49.356;2.718;2023-06-19T05:34:05;16.08;;;9.02;;
23404;SDS011;11875;49.356;2.718;2023-06-19T05:36:30;12.88;;;8.13;;
23404;SDS011;11875;49.356;2.718;2023-06-19T05:38:56;12.57;;;7.78;;
23404;SDS011;11875;49.356;2.718;2023-06-19T05:41:21;11.93;;;7.68;;
23404;SDS011;11875;49.356;2.718;2023-06-19T05:43:47;16.75;;;8.25;;
23404;SDS011;11875;49.356;2.718;2023-06-19T05:46:12;14.27;;;7.63;;
23404;SDS011;11875;49.356;2.718;2023-06-19T05:48:38;14.80;;;7.85;;
23404;SDS011;11875;49.356;2.718;2023-06-19T05:51:03;14.68;;;8.20;;
23404;SDS011;11875;49.356;2.718;2023-06-19T05:53:29;14.65;;;7.72;;
23404;SDS011;11875;49.356;2.718;2023-06-19T05:55:56;15.25;;;8.00;;
23404;SDS011;11875;49.356;2.718;2023-06-19T05:58:23;13.52;;;8.55;;
23404;SDS011;11875;49.356;2.718;2023-06-19T06:00:50;15.55;;;8.60;;
23404;SDS011;11875;49.356;2.718;2023-06-19T06:03:22;18.77;;;8.32;;
23404;SDS011;11875;49.356;2.718;2023-06-19T06:05:49;9.23;;;8.05;;
23404;SDS011;11875;49.356;2.718;2023-06-19T06:08:14;16.70;;;8.05;;
23404;SDS011;11875;49.356;2.718;2023-06-19T06:10:40;14.00;;;8.80;;
23404;SDS011;11875;49.356;2.718;2023-06-19T06:13:06;10.55;;;7.38;;
23404;SDS011;11875;49.356;2.718;2023-06-19T06:15:31;12.75;;;7.85;;
23404;SDS011;11875;49.356;2.718;2023-06-19T06:17:57;13.15;;;7.80;;
23404;SDS011;11875;49.356;2.718;2023-06-19T06:20:22;11.75;;;7.75;;
23404;SDS011;11875;49.356;2.718;2023-06-19T06:22:48;11.13;;;7.78;;
23404;SDS011;11875;49.356;2.718;2023-06-19T06:25:14;11.05;;;7.93;;
23404;SDS011;11875;49.356;2.718;2023-06-19T06:27:40;12.77;;;8.20;;
23404;SDS011;11875;49.356;2.718;2023-06-19T06:30:06;13.52;;;8.43;;
23404;SDS011;11875;49.356;2.718;2023-06-19T06:32:32;8.75;;;6.50;;
23404;SDS011;11875;49.356;2.718;2023-06-19T06:34:58;12.50;;;7.25;;
23404;SDS011;11875;49.356;2.718;2023-06-19T06:37:24;10.65;;;7.07;;
23404;SDS011;11875;49.356;2.718;2023-06-19T06:39:50;13.75;;;6.90;;
23404;SDS011;11875;49.356;2.718;2023-06-19T06:42:17;10.75;;;7.32;;
23404;SDS011;11875;49.356;2.718;2023-06-19T06:44:42;10.00;;;7.18;;
23404;SDS011;11875;49.356;2.718;2023-06-19T06:47:09;10.95;;;6.72;;
23404;SDS011;11875;49.356;2.718;2023-06-19T06:49:35;9.52;;;6.97;;
23404;SDS011;11875;49.356;2.718;2023-06-19T06:52:01;11.95;;;7.68;;
23404;SDS011;11875;49.356;2.718;2023-06-19T06:54:28;12.43;;;7.07;;
23404;SDS011;11875;49.356;2.718;2023-06-19T06:56:54;9.27;;;7.18;;
23404;SDS011;11875;49.356;2.718;2023-06-19T06:59:23;8.07;;;6.05;;
23404;SDS011;11875;49.356;2.718;2023-06-19T07:01:49;10.90;;;6.38;;
23404;SDS011;11875;49.356;2.718;2023-06-19T07:04:15;8.15;;;6.57;;
23404;SDS011;11875;49.356;2.718;2023-06-19T07:06:40;11.80;;;6.90;;
23404;SDS011;11875;49.356;2.718;2023-06-19T07:09:06;11.90;;;7.32;;
23404;SDS011;11875;49.356;2.718;2023-06-19T07:11:32;10.52;;;6.43;;
23404;SDS011;11875;49.356;2.718;2023-06-19T07:13:58;13.23;;;6.50;;
23404;SDS011;11875;49.356;2.718;2023-06-19T07:16:23;9.50;;;6.75;;
23404;SDS011;11875;49.356;2.718;2023-06-19T07:18:49;9.55;;;6.45;;
23404;SDS011;11875;49.356;2.718;2023-06-19T07:21:15;8.90;;;6.35;;
23404;SDS011;11875;49.356;2.718;2023-06-19T07:23:40;7.95;;;6.28;;
23404;SDS011;11875;49.356;2.718;2023-06-19T07:26:07;8.27;;;6.40;;
23404;SDS011;11875;49.356;2.718;2023-06-19T07:28:34;8.55;;;6.78;;
23404;SDS011;11875;49.356;2.718;2023-06-19T07:31:01;12.68;;;7.25;;
23404;SDS011;11875;49.356;2.718;2023-06-19T07:33:27;11.40;;;6.97;;
23404;SDS011;11875;49.356;2.718;2023-06-19T07:35:54;10.98;;;6.50;;
23404;SDS011;11875;49.356;2.718;2023-06-19T07:38:20;7.80;;;6.32;;
23404;SDS011;11875;49.356;2.718;2023-06-19T07:40:46;9.00;;;6.05;;
23404;SDS011;11875;49.356;2.718;2023-06-19T07:43:11;8.40;;;6.05;;
23404;SDS011;11875;49.356;2.718;2023-06-19T07:45:37;8.27;;;5.97;;
23404;SDS011;11875;49.356;2.718;2023-06-19T07:48:02;8.18;;;6.20;;
23404;SDS011;11875;49.356;2.718;2023-06-19T07:50:28;9.73;;;6.30;;
23404;SDS011;11875;49.356;2.718;2023-06-19T07:52:54;7.65;;;5.82;;
23404;SDS011;11875;49.356;2.718;2023-06-19T07:55:20;9.73;;;6.80;;
23404;SDS011;11875;49.356;2.718;2023-06-19T07:57:45;8.35;;;6.47;;
23404;SDS011;11875;49.356;2.718;2023-06-19T08:00:11;11.68;;;7.38;;
23404;SDS011;11875;49.356;2.718;2023-06-19T08:02:38;11.77;;;7.05;;
23404;SDS011;11875;49.356;2.718;2023-06-19T08:05:04;12.55;;;6.63;;
23404;SDS011;11875;49.356;2.718;2023-06-19T08:07:31;12.45;;;6.13;;
23404;SDS011;11875;49.356;2.718;2023-06-19T08:09:57;7.63;;;6.38;;
23404;SDS011;11875;49.356;2.718;2023-06-19T08:12:22;7.72;;;6.00;;
23404;SDS011;11875;49.356;2.718;2023-06-19T08:14:48;8.88;;;6.18;;
23404;SDS011;11875;49.356;2.718;2023-06-19T08:17:13;8.43;;;6.10;;
23404;SDS011;11875;49.356;2.718;2023-06-19T08:19:39;9.10;;;7.50;;
23404;SDS011;11875;49.356;2.718;2023-06-19T08:22:05;13.13;;;6.85;;
23404;SDS011;11875;49.356;2.718;2023-06-19T08:24:31;8.40;;;7.13;;
23404;SDS011;11875;49.356;2.718;2023-06-19T08:26:56;12.48;;;7.60;;
23404;SDS011;11875;49.356;2.718;2023-06-19T08:29:22;9.52;;;6.82;;
23404;SDS011;11875;49.356;2.718;2023-06-19T08:31:48;14.40;;;7.40;;
23404;SDS011;11875;49.356;2.718;2023-06-19T08:34:13;11.98;;;6.75;;
23404;SDS011;11875;49.356;2.718;2023-06-19T08:36:39;11.00;;;7.45;;
23404;SDS011;11875;49.356;2.718;2023-06-19T08:39:05;9.07;;;7.40;;
23404;SDS011;11875;49.356;2.718;2023-06-19T08:41:33;13.93;;;7.15;;
23404;SDS011;11875;49.356;2.718;2023-06-19T08:43:59;12.82;;;6.88;;
23404;SDS011;11875;49.356;2.718;2023-06-19T08:46:25;9.23;;;5.93;;
23404;SDS011;11875;49.356;2.718;2023-06-19T08:48:50;10.77;;;6.18;;
23404;SDS011;11875;49.356;2.718;2023-06-19T08:51:16;13.48;;;6.80;;
23404;SDS011;11875;49.356;2.718;2023-06-19T08:53:45;8.02;;;6.32;;
23404;SDS011;11875;49.356;2.718;2023-06-19T08:56:19;6.47;;;5.57;;
23404;SDS011;11875;49.356;2.718;2023-06-19T08:58:45;7.25;;;5.75;;
23404;SDS011;11875;49.356;2.718;2023-06-19T09:01:10;6.75;;;5.93;;
23404;SDS011;11875;49.356;2.718;2023-06-19T09:03:38;7.63;;;5.57;;
23404;SDS011;11875;49.356;2.718;2023-06-19T09:06:05;9.10;;;6.60;;
23404;SDS011;11875;49.356;2.718;2023-06-19T09:08:32;7.80;;;6.70;;
23404;SDS011;11875;49.356;2.718;2023-06-19T09:11:02;10.15;;;6.80;;
23404;SDS011;11875;49.356;2.718;2023-06-19T09:13:29;11.18;;;6.60;;
23404;SDS011;11875;49.356;2.718;2023-06-19T09:15:59;10.45;;;6.60;;
23404;SDS011;11875;49.356;2.718;2023-06-19T09:18:27;8.90;;;6.75;;
23404;SDS011;11875;49.356;2.718;2023-06-19T09:21:06;8.98;;;6.55;;
23404;SDS011;11875;49.356;2.718;2023-06-19T09:23:39;6.70;;;5.55;;
23404;SDS011;11875;49.356;2.718;2023-06-19T09:26:05;7.32;;;5.82;;
23404;SDS011;11875;49.356;2.718;2023-06-19T09:28:30;9.82;;;6.07;;
23404;SDS011;11875;49.356;2.718;2023-06-19T09:33:27;12.85;;;6.30;;
23404;SDS011;11875;49.356;2.718;2023-06-19T09:35:54;7.85;;;5.65;;
23404;SDS011;11875;49.356;2.718;2023-06-19T09:38:21;8.82;;;5.28;;
23404;SDS011;11875;49.356;2.718;2023-06-19T09:40:51;8.25;;;5.97;;
23404;SDS011;11875;49.356;2.718;2023-06-19T09:43:24;9.07;;;5.47;;
23404;SDS011;11875;49.356;2.718;2023-06-19T09:45:51;10.93;;;5.68;;
23404;SDS011;11875;49.356;2.718;2023-06-19T09:48:20;6.40;;;5.22;;
23404;SDS011;11875;49.356;2.718;2023-06-19T09:50:51;11.40;;;6.25;;
23404;SDS011;11875;49.356;2.718;2023-06-19T09:53:23;15.18;;;6.22;;
23404;SDS011;11875;49.356;2.718;2023-06-19T09:55:49;8.18;;;5.90;;
23404;SDS011;11875;49.356;2.718;2023-06-19T09:58:18;6.75;;;5.00;;
23404;SDS011;11875;49.356;2.718;2023-06-19T10:00:46;7.57;;;5.07;;
23404;SDS011;11875;49.356;2.718;2023-06-19T10:03:13;7.53;;;5.68;;
23404;SDS011;11875;49.356;2.718;2023-06-19T10:05:39;7.30;;;5.35;;
23404;SDS011;11875;49.356;2.718;2023-06-19T10:08:05;7.38;;;5.55;;
23404;SDS011;11875;49.356;2.718;2023-06-19T10:10:31;7.97;;;5.32;;
23404;SDS011;11875;49.356;2.718;2023-06-19T10:12:59;9.07;;;5.78;;
23404;SDS011;11875;49.356;2.718;2023-06-19T10:15:39;7.53;;;4.85;;
23404;SDS011;11875;49.356;2.718;2023-06-19T10:18:07;5.90;;;4.90;;
23404;SDS011;11875;49.356;2.718;2023-06-19T10:20:38;5.68;;;4.88;;
23404;SDS011;11875;49.356;2.718;2023-06-19T10:23:12;9.57;;;5.18;;
23404;SDS011;11875;49.356;2.718;2023-06-19T10:25:54;5.32;;;4.38;;
23404;SDS011;11875;49.356;2.718;2023-06-19T10:31:07;8.80;;;5.22;;
23404;SDS011;11875;49.356;2.718;2023-06-19T10:33:34;7.60;;;5.13;;
23404;SDS011;11875;49.356;2.718;2023-06-19T10:36:22;7.95;;;5.22;;
23404;SDS011;11875;49.356;2.718;2023-06-19T10:38:50;7.05;;;4.47;;
23404;SDS011;11875;49.356;2.718;2023-06-19T10:41:23;6.30;;;4.95;;
23404;SDS011;11875;49.356;2.718;2023-06-19T10:44:23;7.90;;;4.85;;
23404;SDS011;11875;49.356;2.718;2023-06-19T10:46:42;7.50;;;5.20;;
23404;SDS011;11875;49.356;2.718;2023-06-19T10:49:08;9.25;;;5.10;;
23404;SDS011;11875;49.356;2.718;2023-06-19T10:51:38;6.05;;;5.15;;
23404;SDS011;11875;49.356;2.718;2023-06-19T10:54:05;8.55;;;4.75;;
23404;SDS011;11875;49.356;2.718;2023-06-19T10:56:31;6.13;;;4.68;;
23404;SDS011;11875;49.356;2.718;2023-06-19T10:58:57;5.15;;;4.65;;
23404;SDS011;11875;49.356;2.718;2023-06-19T11:01:36;8.82;;;5.20;;
23404;SDS011;11875;49.356;2.718;2023-06-19T11:04:07;10.20;;;5.47;;
23404;SDS011;11875;49.356;2.718;2023-06-19T11:06:35;6.68;;;4.60;;
23404;SDS011;11875;49.356;2.718;2023-06-19T11:09:02;7.95;;;5.13;;
23404;SDS011;11875;49.356;2.718;2023-06-19T11:14:09;5.97;;;4.80;;
23404;SDS011;11875;49.356;2.718;2023-06-19T11:16:43;7.60;;;4.75;;
23404;SDS011;11875;49.356;2.718;2023-06-19T11:19:19;5.40;;;4.68;;
23404;SDS011;11875;49.356;2.718;2023-06-19T11:21:46;6.82;;;5.88;;
23404;SDS011;11875;49.356;2.718;2023-06-19T11:24:14;7.97;;;4.70;;
23404;SDS011;11875;49.356;2.718;2023-06-19T11:26:40;5.65;;;4.78;;
23404;SDS011;11875;49.356;2.718;2023-06-19T11:29:22;6.72;;;4.47;;
23404;SDS011;11875;49.356;2.718;2023-06-19T11:31:50;12.27;;;4.68;;
23404;SDS011;11875;49.356;2.718;2023-06-19T11:34:18;7.22;;;4.82;;
23404;SDS011;11875;49.356;2.718;2023-06-19T11:36:44;7.22;;;4.65;;
23404;SDS011;11875;49.356;2.718;2023-06-19T11:39:14;9.55;;;4.65;;
23404;SDS011;11875;49.356;2.718;2023-06-19T11:41:40;7.22;;;4.78;;
23404;SDS011;11875;49.356;2.718;2023-06-19T11:44:08;6.40;;;4.95;;
23404;SDS011;11875;49.356;2.718;2023-06-19T11:46:34;6.70;;;4.82;;
23404;SDS011;11875;49.356;2.718;2023-06-19T11:49:07;6.07;;;4.82;;
23404;SDS011;11875;49.356;2.718;2023-06-19T11:51:37;10.60;;;5.30;;
23404;SDS011;11875;49.356;2.718;2023-06-19T11:54:07;7.78;;;4.90;;
23404;SDS011;11875;49.356;2.718;2023-06-19T11:56:37;6.95;;;4.88;;
23404;SDS011;11875;49.356;2.718;2023-06-19T11:59:04;5.53;;;4.72;;
23404;SDS011;11875;49.356;2.718;2023-06-19T12:01:33;6.53;;;4.85;;
23404;SDS011;11875;49.356;2.718;2023-06-19T12:04:00;6.20;;;5.10;;
23404;SDS011;11875;49.356;2.718;2023-06-19T12:06:26;6.20;;;4.93;;
23404;SDS011;11875;49.356;2.718;2023-06-19T12:08:52;9.02;;;4.65;;
23404;SDS011;11875;49.356;2.718;2023-06-19T12:11:18;6.95;;;4.90;;
23404;SDS011;11875;49.356;2.718;2023-06-19T12:13:44;6.05;;;5.25;;
23404;SDS011;11875;49.356;2.718;2023-06-19T12:16:10;6.30;;;5.07;;
23404;SDS011;11875;49.356;2.718;2023-06-19T12:18:36;5.10;;;4.60;;
23404;SDS011;11875;49.356;2.718;2023-06-19T12:21:02;9.13;;;5.00;;
23404;SDS011;11875;49.356;2.718;2023-06-19T12:23:28;6.88;;;4.55;;
23404;SDS011;11875;49.356;2.718;2023-06-19T12:25:53;6.78;;;5.10;;
23404;SDS011;11875;49.356;2.718;2023-06-19T12:28:19;5.40;;;4.38;;
23404;SDS011;11875;49.356;2.718;2023-06-19T12:30:46;6.28;;;4.40;;
23404;SDS011;11875;49.356;2.718;2023-06-19T12:33:13;7.28;;;4.68;;
23404;SDS011;11875;49.356;2.718;2023-06-19T12:35:39;6.13;;;4.47;;
23404;SDS011;11875;49.356;2.718;2023-06-19T12:38:05;7.47;;;5.15;;
23404;SDS011;11875;49.356;2.718;2023-06-19T12:40:31;14.57;;;4.50;;
23404;SDS011;11875;49.356;2.718;2023-06-19T12:42:57;6.07;;;4.93;;
23404;SDS011;11875;49.356;2.718;2023-06-19T12:45:23;6.13;;;4.57;;
23404;SDS011;11875;49.356;2.718;2023-06-19T12:47:49;5.55;;;4.40;;
23404;SDS011;11875;49.356;2.718;2023-06-19T12:50:14;6.18;;;4.35;;
23404;SDS011;11875;49.356;2.718;2023-06-19T12:52:40;5.28;;;4.72;;
23404;SDS011;11875;49.356;2.718;2023-06-19T12:55:05;7.10;;;4.68;;
23404;SDS011;11875;49.356;2.718;2023-06-19T12:57:31;6.57;;;4.68;;
23404;SDS011;11875;49.356;2.718;2023-06-19T12:59:57;5.78;;;4.38;;
23404;SDS011;11875;49.356;2.718;2023-06-19T13:02:23;7.38;;;4.32;;
23404;SDS011;11875;49.356;2.718;2023-06-19T13:04:48;5.82;;;4.70;;
23404;SDS011;11875;49.356;2.718;2023-06-19T13:07:14;6.00;;;4.63;;
23404;SDS011;11875;49.356;2.718;2023-06-19T13:09:40;7.18;;;4.57;;
23404;SDS011;11875;49.356;2.718;2023-06-19T13:12:06;4.90;;;4.47;;
23404;SDS011;11875;49.356;2.718;2023-06-19T13:14:32;5.30;;;4.55;;
23404;SDS011;11875;49.356;2.718;2023-06-19T13:16:59;5.63;;;4.55;;
23404;SDS011;11875;49.356;2.718;2023-06-19T13:19:25;7.45;;;4.57;;
23404;SDS011;11875;49.356;2.718;2023-06-19T13:21:50;5.60;;;5.00;;
23404;SDS011;11875;49.356;2.718;2023-06-19T13:24:16;6.82;;;4.13;;
23404;SDS011;11875;49.356;2.718;2023-06-19T13:26:43;5.40;;;4.43;;
23404;SDS011;11875;49.356;2.718;2023-06-19T13:29:09;5.63;;;4.70;;
23404;SDS011;11875;49.356;2.718;2023-06-19T13:31:36;6.53;;;4.80;;
23404;SDS011;11875;49.356;2.718;2023-06-19T13:34:02;5.63;;;4.50;;
23404;SDS011;11875;49.356;2.718;2023-06-19T13:36:29;8.95;;;4.97;;
23404;SDS011;11875;49.356;2.718;2023-06-19T13:38:54;5.05;;;4.45;;
23404;SDS011;11875;49.356;2.718;2023-06-19T13:41:20;5.45;;;4.50;;
23404;SDS011;11875;49.356;2.718;2023-06-19T13:43:49;7.72;;;4.50;;
23404;SDS011;11875;49.356;2.718;2023-06-19T13:46:15;5.15;;;4.18;;
23404;SDS011;11875;49.356;2.718;2023-06-19T13:48:41;6.90;;;4.80;;
23404;SDS011;11875;49.356;2.718;2023-06-19T13:51:07;5.72;;;4.40;;
23404;SDS011;11875;49.356;2.718;2023-06-19T13:53:33;5.95;;;4.65;;
23404;SDS011;11875;49.356;2.718;2023-06-19T13:55:58;8.00;;;4.68;;
23404;SDS011;11875;49.356;2.718;2023-06-19T13:58:24;5.65;;;4.68;;
23404;SDS011;11875;49.356;2.718;2023-06-19T14:00:49;7.13;;;4.78;;
23404;SDS011;11875;49.356;2.718;2023-06-19T14:03:15;5.65;;;5.10;;
23404;SDS011;11875;49.356;2.718;2023-06-19T14:05:41;10.13;;;5.15;;
23404;SDS011;11875;49.356;2.718;2023-06-19T14:08:06;7.50;;;5.45;;
23404;SDS011;11875;49.356;2.718;2023-06-19T14:10:33;12.32;;;5.13;;
23404;SDS011;11875;49.356;2.718;2023-06-19T14:12:59;12.43;;;4.78;;
23404;SDS011;11875;49.356;2.718;2023-06-19T14:15:24;6.45;;;4.75;;
23404;SDS011;11875;49.356;2.718;2023-06-19T14:17:50;5.97;;;4.30;;
23404;SDS011;11875;49.356;2.718;2023-06-19T14:20:15;8.50;;;4.97;;
23404;SDS011;11875;49.356;2.718;2023-06-19T14:22:41;10.75;;;5.20;;
23404;SDS011;11875;49.356;2.718;2023-06-19T14:25:07;6.28;;;4.78;;
23404;SDS011;11875;49.356;2.718;2023-06-19T14:27:33;7.63;;;6.40;;
23404;SDS011;11875;49.356;2.718;2023-06-19T14:29:58;5.32;;;4.72;;
23404;SDS011;11875;49.356;2.718;2023-06-19T14:32:24;4.93;;;4.43;;
23404;SDS011;11875;49.356;2.718;2023-06-19T14:34:50;10.18;;;5.28;;
23404;SDS011;11875;49.356;2.718;2023-06-19T14:37:15;6.40;;;5.03;;
23404;SDS011;11875;49.356;2.718;2023-06-19T14:39:41;4.82;;;4.22;;
23404;SDS011;11875;49.356;2.718;2023-06-19T14:42:07;5.05;;;4.55;;
23404;SDS011;11875;49.356;2.718;2023-06-19T14:44:34;5.07;;;4.57;;
23404;SDS011;11875;49.356;2.718;2023-06-19T14:47:01;5.03;;;4.55;;
23404;SDS011;11875;49.356;2.718;2023-06-19T14:49:26;6.65;;;4.78;;